Airfield :







YOU CAN JOIN US ON...

 
LOGIN :

Register | Disclaimer

   EN    FR    IT 

 









Legend :    VFR   Marginal VFR   IFR   Intensive IFR   Very Intensive IFR
Visi :
Ceiling :
>= 8 km
>= 3000ft
5 to 8 km
1000 to 3000 ft
1500m to 5 km
500 to 1000 ft
800 to 1500m
200 to 500 ft
< 800m
< 200 ft
Symbols :   Thunderstorms  Fog  Heavy snow  Heavy precipitations  Wind > 20 kt






- Airport Elevation : 237 ft
- IATA code : BQN


TJBQ - Rafael Hernandez

CURRENT METAR :
  • 281750Z 09015G22KT 10SM SCT020 28/ A3001

EXPIRED METARs :
  • 281650Z 09015G19KT 10SM SCT022 28/ A3005

TAF TJBQ
Valid from the 28 at 18:00 until the 29 at 18:00 UTC


281724Z 2818/2918 08017G22KT P6SM SCT030 SCT040
FM282300 08012KT P6SM VCSH FEW030 FEW040
FM291400 07017KT P6SM FEW030 SCT040 AMD NOT SKED 2902/2911



MET'MAP, your aeronautical weather chart ! - Copyright ORBIFLY December 2007 - Disclaimer

ORBIFLY MET'MAP TEAM :

Programming & Development : Alexandra Zaïnal
Concept & original design : Baudouin d'Aumeries
Assistance for programming : Marc-Olivier Méhu
Technical & hardware support : Manuel Goepfert

Contact : metmap@orbifly.com




SOURCES & CREDITS :

   NOAA